sensor_id;sensor_type;location;lat;lon;timestamp;P1;durP1;ratioP1;P2;durP2;ratioP2
20814;SDS011;10568;48.176;16.316;2022-11-21T00:01:54;14.40;;;7.90;;
20814;SDS011;10568;48.176;16.316;2022-11-21T00:04:20;14.73;;;8.23;;
20814;SDS011;10568;48.176;16.316;2022-11-21T00:06:45;14.13;;;7.83;;
20814;SDS011;10568;48.176;16.316;2022-11-21T00:09:11;15.13;;;7.93;;
20814;SDS011;10568;48.176;16.316;2022-11-21T00:11:37;13.47;;;6.47;;
20814;SDS011;10568;48.176;16.316;2022-11-21T00:14:02;11.40;;;6.37;;
20814;SDS011;10568;48.176;16.316;2022-11-21T00:16:28;10.30;;;6.20;;
20814;SDS011;10568;48.176;16.316;2022-11-21T00:18:54;12.17;;;6.97;;
20814;SDS011;10568;48.176;16.316;2022-11-21T00:21:19;10.37;;;6.00;;
20814;SDS011;10568;48.176;16.316;2022-11-21T00:23:46;11.57;;;5.83;;
20814;SDS011;10568;48.176;16.316;2022-11-21T00:26:12;9.37;;;5.00;;
20814;SDS011;10568;48.176;16.316;2022-11-21T00:28:39;9.83;;;5.77;;
20814;SDS011;10568;48.176;16.316;2022-11-21T00:31:06;7.40;;;4.70;;
20814;SDS011;10568;48.176;16.316;2022-11-21T00:33:35;6.70;;;4.50;;
20814;SDS011;10568;48.176;16.316;2022-11-21T00:36:06;7.33;;;4.97;;
20814;SDS011;10568;48.176;16.316;2022-11-21T00:38:33;6.90;;;4.27;;
20814;SDS011;10568;48.176;16.316;2022-11-21T00:40:59;9.60;;;4.40;;
20814;SDS011;10568;48.176;16.316;2022-11-21T00:43:25;7.13;;;4.20;;
20814;SDS011;10568;48.176;16.316;2022-11-21T00:45:50;9.23;;;5.13;;
20814;SDS011;10568;48.176;16.316;2022-11-21T00:48:16;8.33;;;5.57;;
20814;SDS011;10568;48.176;16.316;2022-11-21T00:50:42;8.27;;;4.80;;
20814;SDS011;10568;48.176;16.316;2022-11-21T00:53:07;7.27;;;4.87;;
20814;SDS011;10568;48.176;16.316;2022-11-21T00:55:33;7.97;;;4.80;;
20814;SDS011;10568;48.176;16.316;2022-11-21T00:58:01;8.47;;;4.77;;
20814;SDS011;10568;48.176;16.316;2022-11-21T01:00:27;5.60;;;3.97;;
20814;SDS011;10568;48.176;16.316;2022-11-21T01:02:52;11.10;;;4.50;;
20814;SDS011;10568;48.176;16.316;2022-11-21T01:05:18;9.10;;;4.13;;
20814;SDS011;10568;48.176;16.316;2022-11-21T01:07:44;7.80;;;4.67;;
20814;SDS011;10568;48.176;16.316;2022-11-21T01:10:11;9.10;;;5.07;;
20814;SDS011;10568;48.176;16.316;2022-11-21T01:12:37;6.77;;;4.33;;
20814;SDS011;10568;48.176;16.316;2022-11-21T01:15:03;8.47;;;4.20;;
20814;SDS011;10568;48.176;16.316;2022-11-21T01:17:31;6.63;;;4.37;;
20814;SDS011;10568;48.176;16.316;2022-11-21T01:19:57;8.33;;;4.33;;
20814;SDS011;10568;48.176;16.316;2022-11-21T01:22:23;6.97;;;4.50;;
20814;SDS011;10568;48.176;16.316;2022-11-21T01:24:48;5.57;;;4.10;;
20814;SDS011;10568;48.176;16.316;2022-11-21T01:27:14;6.80;;;4.23;;
20814;SDS011;10568;48.176;16.316;2022-11-21T01:29:40;7.17;;;4.20;;
20814;SDS011;10568;48.176;16.316;2022-11-21T01:32:06;7.70;;;4.40;;
20814;SDS011;10568;48.176;16.316;2022-11-21T01:34:31;5.17;;;3.83;;
20814;SDS011;10568;48.176;16.316;2022-11-21T01:36:57;4.90;;;3.37;;
20814;SDS011;10568;48.176;16.316;2022-11-21T01:39:23;6.83;;;3.73;;
20814;SDS011;10568;48.176;16.316;2022-11-21T01:41:49;5.97;;;3.80;;
20814;SDS011;10568;48.176;16.316;2022-11-21T01:44:19;5.70;;;3.47;;
20814;SDS011;10568;48.176;16.316;2022-11-21T01:46:45;6.03;;;3.10;;
20814;SDS011;10568;48.176;16.316;2022-11-21T01:49:22;4.20;;;3.37;;
20814;SDS011;10568;48.176;16.316;2022-11-21T01:52:02;5.47;;;3.40;;
20814;SDS011;10568;48.176;16.316;2022-11-21T01:54:53;5.43;;;3.30;;
20814;SDS011;10568;48.176;16.316;2022-11-21T01:57:27;3.70;;;2.93;;
20814;SDS011;10568;48.176;16.316;2022-11-21T01:59:59;5.43;;;3.00;;
20814;SDS011;10568;48.176;16.316;2022-11-21T02:02:29;3.77;;;2.67;;
20814;SDS011;10568;48.176;16.316;2022-11-21T02:05:01;3.70;;;2.27;;
20814;SDS011;10568;48.176;16.316;2022-11-21T02:07:31;3.90;;;2.60;;
20814;SDS011;10568;48.176;16.316;2022-11-21T02:10:00;5.10;;;3.17;;
20814;SDS011;10568;48.176;16.316;2022-11-21T02:12:33;4.50;;;3.07;;
20814;SDS011;10568;48.176;16.316;2022-11-21T02:15:14;4.73;;;2.70;;
20814;SDS011;10568;48.176;16.316;2022-11-21T02:17:42;4.17;;;3.23;;
20814;SDS011;10568;48.176;16.316;2022-11-21T02:20:11;4.57;;;2.93;;
20814;SDS011;10568;48.176;16.316;2022-11-21T02:25:43;4.57;;;3.27;;
20814;SDS011;10568;48.176;16.316;2022-11-21T02:28:15;8.07;;;3.80;;
20814;SDS011;10568;48.176;16.316;2022-11-21T02:30:44;4.43;;;3.13;;
20814;SDS011;10568;48.176;16.316;2022-11-21T02:33:10;6.27;;;3.20;;
20814;SDS011;10568;48.176;16.316;2022-11-21T02:35:37;5.57;;;3.53;;
20814;SDS011;10568;48.176;16.316;2022-11-21T02:38:05;6.63;;;3.47;;
20814;SDS011;10568;48.176;16.316;2022-11-21T02:40:47;4.90;;;3.23;;
20814;SDS011;10568;48.176;16.316;2022-11-21T02:43:32;9.00;;;3.23;;
20814;SDS011;10568;48.176;16.316;2022-11-21T02:46:06;4.43;;;3.13;;
20814;SDS011;10568;48.176;16.316;2022-11-21T02:48:32;3.57;;;2.93;;
20814;SDS011;10568;48.176;16.316;2022-11-21T02:50:58;3.27;;;2.37;;
20814;SDS011;10568;48.176;16.316;2022-11-21T02:53:24;3.17;;;2.33;;
20814;SDS011;10568;48.176;16.316;2022-11-21T02:55:50;3.10;;;2.37;;
20814;SDS011;10568;48.176;16.316;2022-11-21T02:58:16;4.33;;;2.60;;
20814;SDS011;10568;48.176;16.316;2022-11-21T03:00:42;3.63;;;2.50;;
20814;SDS011;10568;48.176;16.316;2022-11-21T03:03:07;2.50;;;2.30;;
20814;SDS011;10568;48.176;16.316;2022-11-21T03:05:33;4.80;;;2.17;;
20814;SDS011;10568;48.176;16.316;2022-11-21T03:07:59;4.57;;;1.83;;
20814;SDS011;10568;48.176;16.316;2022-11-21T03:10:25;4.07;;;2.60;;
20814;SDS011;10568;48.176;16.316;2022-11-21T03:12:51;1.83;;;1.40;;
20814;SDS011;10568;48.176;16.316;2022-11-21T03:15:24;3.67;;;2.00;;
20814;SDS011;10568;48.176;16.316;2022-11-21T03:17:52;2.43;;;2.10;;
20814;SDS011;10568;48.176;16.316;2022-11-21T03:20:18;1.80;;;1.60;;
20814;SDS011;10568;48.176;16.316;2022-11-21T03:22:44;2.27;;;1.60;;
20814;SDS011;10568;48.176;16.316;2022-11-21T03:25:12;1.87;;;1.60;;
20814;SDS011;10568;48.176;16.316;2022-11-21T03:27:38;1.60;;;1.50;;
20814;SDS011;10568;48.176;16.316;2022-11-21T03:30:04;2.60;;;1.83;;
20814;SDS011;10568;48.176;16.316;2022-11-21T03:32:30;3.20;;;1.60;;
20814;SDS011;10568;48.176;16.316;2022-11-21T03:34:56;2.97;;;1.63;;
20814;SDS011;10568;48.176;16.316;2022-11-21T03:37:22;1.67;;;1.53;;
20814;SDS011;10568;48.176;16.316;2022-11-21T03:39:47;2.40;;;1.33;;
20814;SDS011;10568;48.176;16.316;2022-11-21T03:42:13;1.60;;;1.50;;
20814;SDS011;10568;48.176;16.316;2022-11-21T03:44:39;2.57;;;1.53;;
20814;SDS011;10568;48.176;16.316;2022-11-21T03:47:04;1.40;;;1.30;;
20814;SDS011;10568;48.176;16.316;2022-11-21T03:49:30;1.73;;;1.60;;
20814;SDS011;10568;48.176;16.316;2022-11-21T03:51:56;2.77;;;1.73;;
20814;SDS011;10568;48.176;16.316;2022-11-21T03:54:21;1.97;;;1.70;;
20814;SDS011;10568;48.176;16.316;2022-11-21T03:56:47;2.17;;;1.50;;
20814;SDS011;10568;48.176;16.316;2022-11-21T03:59:13;2.07;;;1.40;;
20814;SDS011;10568;48.176;16.316;2022-11-21T04:01:38;1.73;;;1.50;;
20814;SDS011;10568;48.176;16.316;2022-11-21T04:04:04;2.30;;;1.77;;
20814;SDS011;10568;48.176;16.316;2022-11-21T04:06:30;2.50;;;1.73;;
20814;SDS011;10568;48.176;16.316;2022-11-21T04:08:55;1.47;;;1.27;;
20814;SDS011;10568;48.176;16.316;2022-11-21T04:11:21;1.43;;;1.30;;
20814;SDS011;10568;48.176;16.316;2022-11-21T04:13:48;2.00;;;1.30;;
20814;SDS011;10568;48.176;16.316;2022-11-21T04:16:15;1.30;;;1.20;;
20814;SDS011;10568;48.176;16.316;2022-11-21T04:18:41;1.57;;;1.40;;
20814;SDS011;10568;48.176;16.316;2022-11-21T04:21:07;1.47;;;1.30;;
20814;SDS011;10568;48.176;16.316;2022-11-21T04:23:33;1.57;;;1.30;;
20814;SDS011;10568;48.176;16.316;2022-11-21T04:25:59;2.10;;;1.47;;
20814;SDS011;10568;48.176;16.316;2022-11-21T04:28:25;1.10;;;1.00;;
20814;SDS011;10568;48.176;16.316;2022-11-21T04:30:50;1.43;;;1.33;;
20814;SDS011;10568;48.176;16.316;2022-11-21T04:33:16;1.00;;;0.87;;
20814;SDS011;10568;48.176;16.316;2022-11-21T04:35:43;1.87;;;1.50;;
20814;SDS011;10568;48.176;16.316;2022-11-21T04:38:10;1.40;;;1.10;;
20814;SDS011;10568;48.176;16.316;2022-11-21T04:40:36;1.23;;;1.10;;
20814;SDS011;10568;48.176;16.316;2022-11-21T04:43:02;1.10;;;0.97;;
20814;SDS011;10568;48.176;16.316;2022-11-21T04:45:28;2.90;;;1.13;;
20814;SDS011;10568;48.176;16.316;2022-11-21T04:47:54;2.60;;;1.10;;
20814;SDS011;10568;48.176;16.316;2022-11-21T04:50:20;1.10;;;1.00;;
20814;SDS011;10568;48.176;16.316;2022-11-21T04:52:49;1.33;;;1.20;;
20814;SDS011;10568;48.176;16.316;2022-11-21T04:55:20;1.40;;;1.10;;
20814;SDS011;10568;48.176;16.316;2022-11-21T04:57:47;1.10;;;1.00;;
20814;SDS011;10568;48.176;16.316;2022-11-21T05:00:14;0.80;;;0.80;;
20814;SDS011;10568;48.176;16.316;2022-11-21T05:02:40;0.87;;;0.80;;
20814;SDS011;10568;48.176;16.316;2022-11-21T05:05:06;0.97;;;0.90;;
20814;SDS011;10568;48.176;16.316;2022-11-21T05:07:32;0.80;;;0.80;;
20814;SDS011;10568;48.176;16.316;2022-11-21T05:09:58;1.20;;;0.90;;
20814;SDS011;10568;48.176;16.316;2022-11-21T05:12:24;2.77;;;0.80;;
20814;SDS011;10568;48.176;16.316;2022-11-21T05:15:08;0.90;;;0.83;;
20814;SDS011;10568;48.176;16.316;2022-11-21T05:17:34;2.63;;;0.90;;
20814;SDS011;10568;48.176;16.316;2022-11-21T05:20:00;0.70;;;0.70;;
20814;SDS011;10568;48.176;16.316;2022-11-21T05:22:25;1.20;;;1.10;;
20814;SDS011;10568;48.176;16.316;2022-11-21T05:24:51;2.90;;;1.10;;
20814;SDS011;10568;48.176;16.316;2022-11-21T05:27:17;1.23;;;1.00;;
20814;SDS011;10568;48.176;16.316;2022-11-21T05:29:43;0.90;;;0.90;;
20814;SDS011;10568;48.176;16.316;2022-11-21T05:32:08;1.10;;;1.00;;
20814;SDS011;10568;48.176;16.316;2022-11-21T05:34:34;1.03;;;0.93;;
20814;SDS011;10568;48.176;16.316;2022-11-21T05:37:00;1.03;;;0.90;;
20814;SDS011;10568;48.176;16.316;2022-11-21T05:39:26;1.00;;;0.73;;
20814;SDS011;10568;48.176;16.316;2022-11-21T05:41:52;2.00;;;1.00;;
20814;SDS011;10568;48.176;16.316;2022-11-21T05:44:18;0.97;;;0.83;;
20814;SDS011;10568;48.176;16.316;2022-11-21T05:46:43;1.80;;;1.07;;
20814;SDS011;10568;48.176;16.316;2022-11-21T05:49:10;1.07;;;0.97;;
20814;SDS011;10568;48.176;16.316;2022-11-21T05:51:36;2.60;;;1.30;;
20814;SDS011;10568;48.176;16.316;2022-11-21T05:54:02;2.50;;;1.10;;
20814;SDS011;10568;48.176;16.316;2022-11-21T05:56:28;1.50;;;1.10;;
20814;SDS011;10568;48.176;16.316;2022-11-21T05:58:55;1.47;;;1.03;;
20814;SDS011;10568;48.176;16.316;2022-11-21T06:01:22;3.07;;;1.40;;
20814;SDS011;10568;48.176;16.316;2022-11-21T06:04:07;1.37;;;1.00;;
20814;SDS011;10568;48.176;16.316;2022-11-21T06:06:34;1.17;;;1.07;;
20814;SDS011;10568;48.176;16.316;2022-11-21T06:09:00;1.03;;;0.93;;
20814;SDS011;10568;48.176;16.316;2022-11-21T06:11:26;1.83;;;0.90;;
20814;SDS011;10568;48.176;16.316;2022-11-21T06:13:52;0.80;;;0.80;;
20814;SDS011;10568;48.176;16.316;2022-11-21T06:16:18;0.77;;;0.73;;
20814;SDS011;10568;48.176;16.316;2022-11-21T06:18:48;1.17;;;0.80;;
20814;SDS011;10568;48.176;16.316;2022-11-21T06:21:20;0.80;;;0.80;;
20814;SDS011;10568;48.176;16.316;2022-11-21T06:23:49;0.80;;;0.80;;
20814;SDS011;10568;48.176;16.316;2022-11-21T06:26:17;2.83;;;0.90;;
20814;SDS011;10568;48.176;16.316;2022-11-21T06:28:47;0.63;;;0.63;;
20814;SDS011;10568;48.176;16.316;2022-11-21T06:31:14;0.77;;;0.77;;
20814;SDS011;10568;48.176;16.316;2022-11-21T06:33:41;0.80;;;0.80;;
20814;SDS011;10568;48.176;16.316;2022-11-21T06:36:11;1.57;;;1.00;;
20814;SDS011;10568;48.176;16.316;2022-11-21T06:38:41;0.77;;;0.53;;
20814;SDS011;10568;48.176;16.316;2022-11-21T06:41:12;1.03;;;0.77;;
20814;SDS011;10568;48.176;16.316;2022-11-21T06:43:39;1.37;;;0.90;;
20814;SDS011;10568;48.176;16.316;2022-11-21T06:46:05;1.20;;;0.90;;
20814;SDS011;10568;48.176;16.316;2022-11-21T06:48:32;0.70;;;0.70;;
20814;SDS011;10568;48.176;16.316;2022-11-21T06:53:32;1.20;;;0.90;;
20814;SDS011;10568;48.176;16.316;2022-11-21T06:55:58;1.77;;;1.30;;
20814;SDS011;10568;48.176;16.316;2022-11-21T06:58:28;1.17;;;0.97;;
20814;SDS011;10568;48.176;16.316;2022-11-21T07:00:54;2.17;;;0.97;;
20814;SDS011;10568;48.176;16.316;2022-11-21T07:03:20;2.30;;;1.50;;
20814;SDS011;10568;48.176;16.316;2022-11-21T07:05:46;3.70;;;1.70;;
20814;SDS011;10568;48.176;16.316;2022-11-21T07:08:12;1.93;;;1.57;;
20814;SDS011;10568;48.176;16.316;2022-11-21T07:10:38;2.73;;;1.80;;
20814;SDS011;10568;48.176;16.316;2022-11-21T07:13:04;2.30;;;1.60;;
20814;SDS011;10568;48.176;16.316;2022-11-21T07:15:45;2.23;;;1.50;;
20814;SDS011;10568;48.176;16.316;2022-11-21T07:18:13;3.33;;;1.67;;
20814;SDS011;10568;48.176;16.316;2022-11-21T07:20:39;1.73;;;1.50;;
20814;SDS011;10568;48.176;16.316;2022-11-21T07:23:05;2.93;;;1.40;;
20814;SDS011;10568;48.176;16.316;2022-11-21T07:25:32;3.53;;;1.67;;
20814;SDS011;10568;48.176;16.316;2022-11-21T07:27:58;1.77;;;1.53;;
20814;SDS011;10568;48.176;16.316;2022-11-21T07:30:25;4.70;;;2.23;;
20814;SDS011;10568;48.176;16.316;2022-11-21T07:32:57;5.30;;;2.03;;
20814;SDS011;10568;48.176;16.316;2022-11-21T07:35:23;3.33;;;1.87;;
20814;SDS011;10568;48.176;16.316;2022-11-21T07:37:50;2.97;;;1.90;;
20814;SDS011;10568;48.176;16.316;2022-11-21T07:40:15;1.87;;;1.50;;
20814;SDS011;10568;48.176;16.316;2022-11-21T07:42:42;5.00;;;2.00;;
20814;SDS011;10568;48.176;16.316;2022-11-21T07:45:08;1.77;;;1.60;;
20814;SDS011;10568;48.176;16.316;2022-11-21T07:47:35;2.50;;;1.80;;
20814;SDS011;10568;48.176;16.316;2022-11-21T07:50:01;3.20;;;1.90;;
20814;SDS011;10568;48.176;16.316;2022-11-21T07:52:27;2.87;;;2.00;;
20814;SDS011;10568;48.176;16.316;2022-11-21T07:54:54;2.47;;;1.63;;
20814;SDS011;10568;48.176;16.316;2022-11-21T07:57:21;2.97;;;2.00;;
20814;SDS011;10568;48.176;16.316;2022-11-21T07:59:47;3.33;;;1.80;;
20814;SDS011;10568;48.176;16.316;2022-11-21T08:02:26;4.37;;;1.83;;
20814;SDS011;10568;48.176;16.316;2022-11-21T08:04:53;1.50;;;1.40;;
20814;SDS011;10568;48.176;16.316;2022-11-21T08:07:19;3.47;;;1.50;;
20814;SDS011;10568;48.176;16.316;2022-11-21T08:09:46;6.63;;;1.93;;
20814;SDS011;10568;48.176;16.316;2022-11-21T08:12:12;2.37;;;1.50;;
20814;SDS011;10568;48.176;16.316;2022-11-21T08:14:38;1.47;;;1.20;;
20814;SDS011;10568;48.176;16.316;2022-11-21T08:17:05;1.77;;;1.20;;
20814;SDS011;10568;48.176;16.316;2022-11-21T08:19:31;1.23;;;1.00;;
20814;SDS011;10568;48.176;16.316;2022-11-21T08:21:57;2.90;;;1.10;;
20814;SDS011;10568;48.176;16.316;2022-11-21T08:24:23;0.90;;;0.70;;
20814;SDS011;10568;48.176;16.316;2022-11-21T08:26:52;1.07;;;0.90;;
20814;SDS011;10568;48.176;16.316;2022-11-21T08:29:18;1.53;;;0.90;;
20814;SDS011;10568;48.176;16.316;2022-11-21T08:31:44;1.10;;;1.00;;
20814;SDS011;10568;48.176;16.316;2022-11-21T08:34:10;1.60;;;0.90;;
20814;SDS011;10568;48.176;16.316;2022-11-21T08:36:37;0.60;;;0.60;;
20814;SDS011;10568;48.176;16.316;2022-11-21T08:39:03;1.00;;;0.60;;
20814;SDS011;10568;48.176;16.316;2022-11-21T08:41:29;1.07;;;0.90;;
20814;SDS011;10568;48.176;16.316;2022-11-21T08:44:13;0.70;;;0.67;;
20814;SDS011;10568;48.176;16.316;2022-11-21T08:46:39;0.70;;;0.60;;
20814;SDS011;10568;48.176;16.316;2022-11-21T08:49:05;0.77;;;0.50;;
20814;SDS011;10568;48.176;16.316;2022-11-21T08:51:31;0.77;;;0.60;;
20814;SDS011;10568;48.176;16.316;2022-11-21T08:53:58;0.50;;;0.50;;
20814;SDS011;10568;48.176;16.316;2022-11-21T08:56:24;2.40;;;0.60;;
20814;SDS011;10568;48.176;16.316;2022-11-21T08:58:50;0.60;;;0.60;;
20814;SDS011;10568;48.176;16.316;2022-11-21T09:01:15;0.47;;;0.40;;
20814;SDS011;10568;48.176;16.316;2022-11-21T09:03:41;0.77;;;0.50;;
20814;SDS011;10568;48.176;16.316;2022-11-21T09:06:07;0.30;;;0.30;;
20814;SDS011;10568;48.176;16.316;2022-11-21T09:08:33;2.20;;;0.40;;
20814;SDS011;10568;48.176;16.316;2022-11-21T09:11:03;1.70;;;0.57;;
20814;SDS011;10568;48.176;16.316;2022-11-21T09:13:29;0.30;;;0.30;;
20814;SDS011;10568;48.176;16.316;2022-11-21T09:15:56;0.53;;;0.33;;
20814;SDS011;10568;48.176;16.316;2022-11-21T09:18:41;2.03;;;0.57;;
20814;SDS011;10568;48.176;16.316;2022-11-21T09:21:07;1.07;;;0.47;;
20814;SDS011;10568;48.176;16.316;2022-11-21T09:23:33;0.57;;;0.50;;
20814;SDS011;10568;48.176;16.316;2022-11-21T09:25:59;1.47;;;0.40;;
20814;SDS011;10568;48.176;16.316;2022-11-21T09:28:25;0.70;;;0.60;;
20814;SDS011;10568;48.176;16.316;2022-11-21T09:30:51;0.83;;;0.50;;
20814;SDS011;10568;48.176;16.316;2022-11-21T09:33:17;0.90;;;0.60;;
20814;SDS011;10568;48.176;16.316;2022-11-21T09:35:42;0.97;;;0.53;;
20814;SDS011;10568;48.176;16.316;2022-11-21T09:38:08;1.07;;;0.60;;
20814;SDS011;10568;48.176;16.316;2022-11-21T09:40:34;1.33;;;0.40;;
20814;SDS011;10568;48.176;16.316;2022-11-21T09:46:24;1.33;;;0.63;;
20814;SDS011;10568;48.176;16.316;2022-11-21T09:48:54;0.97;;;0.60;;
20814;SDS011;10568;48.176;16.316;2022-11-21T09:51:24;0.67;;;0.37;;
20814;SDS011;10568;48.176;16.316;2022-11-21T09:53:58;0.50;;;0.50;;
20814;SDS011;10568;48.176;16.316;2022-11-21T09:56:29;2.33;;;0.37;;
20814;SDS011;10568;48.176;16.316;2022-11-21T09:59:07;0.43;;;0.40;;
20814;SDS011;10568;48.176;16.316;2022-11-21T10:01:43;0.30;;;0.30;;
20814;SDS011;10568;48.176;16.316;2022-11-21T10:04:08;0.40;;;0.40;;
20814;SDS011;10568;48.176;16.316;2022-11-21T10:15:02;1.67;;;0.60;;
20814;SDS011;10568;48.176;16.316;2022-11-21T10:18:39;1.60;;;0.70;;
20814;SDS011;10568;48.176;16.316;2022-11-21T10:24:11;1.03;;;0.50;;
20814;SDS011;10568;48.176;16.316;2022-11-21T10:31:48;0.73;;;0.47;;
20814;SDS011;10568;48.176;16.316;2022-11-21T10:34:19;2.40;;;0.63;;
20814;SDS011;10568;48.176;16.316;2022-11-21T10:36:53;0.57;;;0.40;;
20814;SDS011;10568;48.176;16.316;2022-11-21T10:41:58;0.30;;;0.30;;
20814;SDS011;10568;48.176;16.316;2022-11-21T10:44:28;1.27;;;0.30;;
20814;SDS011;10568;48.176;16.316;2022-11-21T10:47:14;0.30;;;0.30;;
20814;SDS011;10568;48.176;16.316;2022-11-21T10:52:59;0.40;;;0.40;;
20814;SDS011;10568;48.176;16.316;2022-11-21T10:55:27;1.30;;;0.50;;
20814;SDS011;10568;48.176;16.316;2022-11-21T10:57:52;0.70;;;0.40;;
20814;SDS011;10568;48.176;16.316;2022-11-21T11:00:21;1.53;;;0.50;;
20814;SDS011;10568;48.176;16.316;2022-11-21T11:05:26;0.60;;;0.43;;
20814;SDS011;10568;48.176;16.316;2022-11-21T11:11:04;0.57;;;0.40;;
20814;SDS011;10568;48.176;16.316;2022-11-21T11:13:31;0.40;;;0.40;;
20814;SDS011;10568;48.176;16.316;2022-11-21T11:18:28;0.60;;;0.30;;
20814;SDS011;10568;48.176;16.316;2022-11-21T11:21:12;0.93;;;0.40;;
20814;SDS011;10568;48.176;16.316;2022-11-21T11:23:43;0.63;;;0.40;;
20814;SDS011;10568;48.176;16.316;2022-11-21T11:29:08;0.43;;;0.40;;
20814;SDS011;10568;48.176;16.316;2022-11-21T11:34:20;0.40;;;0.30;;
20814;SDS011;10568;48.176;16.316;2022-11-21T11:48:49;0.33;;;0.33;;
20814;SDS011;10568;48.176;16.316;2022-11-21T11:54:28;1.00;;;0.40;;
20814;SDS011;10568;48.176;16.316;2022-11-21T11:56:53;0.43;;;0.33;;
20814;SDS011;10568;48.176;16.316;2022-11-21T11:59:56;0.80;;;0.60;;
20814;SDS011;10568;48.176;16.316;2022-11-21T12:02:22;0.30;;;0.30;;
20814;SDS011;10568;48.176;16.316;2022-11-21T12:05:06;0.40;;;0.30;;
20814;SDS011;10568;48.176;16.316;2022-11-21T12:07:41;0.80;;;0.40;;
20814;SDS011;10568;48.176;16.316;2022-11-21T12:10:13;0.50;;;0.40;;
20814;SDS011;10568;48.176;16.316;2022-11-21T12:12:48;1.13;;;0.47;;
20814;SDS011;10568;48.176;16.316;2022-11-21T12:23:31;1.33;;;0.50;;
20814;SDS011;10568;48.176;16.316;2022-11-21T12:57:58;0.60;;;0.40;;
20814;SDS011;10568;48.176;16.316;2022-11-21T13:01:01;0.40;;;0.40;;
20814;SDS011;10568;48.176;16.316;2022-11-21T13:06:18;0.40;;;0.40;;
20814;SDS011;10568;48.176;16.316;2022-11-21T13:08:50;0.80;;;0.60;;
20814;SDS011;10568;48.176;16.316;2022-11-21T13:11:20;0.53;;;0.40;;
20814;SDS011;10568;48.176;16.316;2022-11-21T13:14:29;0.73;;;0.53;;
20814;SDS011;10568;48.176;16.316;2022-11-21T13:25:03;0.87;;;0.40;;
20814;SDS011;10568;48.176;16.316;2022-11-21T13:27:37;0.40;;;0.40;;
20814;SDS011;10568;48.176;16.316;2022-11-21T13:32:45;1.07;;;0.60;;
20814;SDS011;10568;48.176;16.316;2022-11-21T16:02:36;1.07;;;0.97;;
20814;SDS011;10568;48.176;16.316;2022-11-21T16:05:02;1.00;;;0.90;;
20814;SDS011;10568;48.176;16.316;2022-11-21T16:07:28;1.30;;;1.10;;
20814;SDS011;10568;48.176;16.316;2022-11-21T16:09:54;0.70;;;0.70;;
20814;SDS011;10568;48.176;16.316;2022-11-21T16:12:20;1.37;;;0.80;;
20814;SDS011;10568;48.176;16.316;2022-11-21T16:14:46;0.90;;;0.60;;
20814;SDS011;10568;48.176;16.316;2022-11-21T16:17:14;0.80;;;0.80;;
20814;SDS011;10568;48.176;16.316;2022-11-21T16:19:48;0.60;;;0.60;;
20814;SDS011;10568;48.176;16.316;2022-11-21T16:22:17;1.33;;;0.70;;
20814;SDS011;10568;48.176;16.316;2022-11-21T16:24:45;0.60;;;0.60;;
20814;SDS011;10568;48.176;16.316;2022-11-21T16:27:14;0.80;;;0.80;;
20814;SDS011;10568;48.176;16.316;2022-11-21T16:29:42;0.63;;;0.63;;
20814;SDS011;10568;48.176;16.316;2022-11-21T16:32:16;0.70;;;0.50;;
20814;SDS011;10568;48.176;16.316;2022-11-21T16:34:47;0.97;;;0.83;;
20814;SDS011;10568;48.176;16.316;2022-11-21T16:37:13;1.90;;;1.03;;
20814;SDS011;10568;48.176;16.316;2022-11-21T16:39:39;1.10;;;1.00;;
20814;SDS011;10568;48.176;16.316;2022-11-21T16:42:08;1.53;;;1.00;;
20814;SDS011;10568;48.176;16.316;2022-11-21T16:44:34;1.17;;;0.90;;
20814;SDS011;10568;48.176;16.316;2022-11-21T16:47:00;0.93;;;0.90;;
20814;SDS011;10568;48.176;16.316;2022-11-21T16:49:26;1.63;;;1.40;;
20814;SDS011;10568;48.176;16.316;2022-11-21T16:51:52;2.47;;;1.53;;
20814;SDS011;10568;48.176;16.316;2022-11-21T16:54:18;3.67;;;2.03;;
20814;SDS011;10568;48.176;16.316;2022-11-21T16:56:45;2.10;;;1.90;;
20814;SDS011;10568;48.176;16.316;2022-11-21T16:59:12;3.00;;;2.13;;
20814;SDS011;10568;48.176;16.316;2022-11-21T17:01:38;3.83;;;2.27;;
20814;SDS011;10568;48.176;16.316;2022-11-21T17:04:04;5.63;;;2.80;;
20814;SDS011;10568;48.176;16.316;2022-11-21T17:06:30;6.13;;;2.87;;
20814;SDS011;10568;48.176;16.316;2022-11-21T17:08:57;3.47;;;2.20;;
20814;SDS011;10568;48.176;16.316;2022-11-21T17:11:25;3.90;;;2.40;;
20814;SDS011;10568;48.176;16.316;2022-11-21T17:13:53;4.37;;;2.60;;
20814;SDS011;10568;48.176;16.316;2022-11-21T17:16:21;4.83;;;2.07;;
20814;SDS011;10568;48.176;16.316;2022-11-21T17:18:51;3.30;;;2.00;;
20814;SDS011;10568;48.176;16.316;2022-11-21T17:21:18;2.03;;;1.83;;
20814;SDS011;10568;48.176;16.316;2022-11-21T17:23:44;4.20;;;2.27;;
20814;SDS011;10568;48.176;16.316;2022-11-21T17:26:11;3.30;;;2.47;;
20814;SDS011;10568;48.176;16.316;2022-11-21T17:28:39;3.60;;;2.00;;
20814;SDS011;10568;48.176;16.316;2022-11-21T17:31:09;2.20;;;1.80;;
20814;SDS011;10568;48.176;16.316;2022-11-21T17:33:39;2.83;;;2.03;;
20814;SDS011;10568;48.176;16.316;2022-11-21T17:36:09;4.67;;;2.77;;
20814;SDS011;10568;48.176;16.316;2022-11-21T17:38:37;5.93;;;2.80;;
20814;SDS011;10568;48.176;16.316;2022-11-21T17:41:08;5.90;;;3.37;;
20814;SDS011;10568;48.176;16.316;2022-11-21T17:43:36;4.77;;;2.83;;
20814;SDS011;10568;48.176;16.316;2022-11-21T17:46:05;8.10;;;3.17;;
20814;SDS011;10568;48.176;16.316;2022-11-21T17:48:34;14.67;;;3.80;;
20814;SDS011;10568;48.176;16.316;2022-11-21T17:51:02;5.43;;;3.83;;
20814;SDS011;10568;48.176;16.316;2022-11-21T17:53:34;6.00;;;3.47;;
20814;SDS011;10568;48.176;16.316;2022-11-21T17:56:12;6.77;;;4.10;;
20814;SDS011;10568;48.176;16.316;2022-11-21T17:58:40;6.70;;;3.57;;
20814;SDS011;10568;48.176;16.316;2022-11-21T18:01:06;6.87;;;3.83;;
20814;SDS011;10568;48.176;16.316;2022-11-21T18:03:38;4.33;;;3.30;;
20814;SDS011;10568;48.176;16.316;2022-11-21T18:06:08;4.57;;;3.90;;
20814;SDS011;10568;48.176;16.316;2022-11-21T18:08:36;5.40;;;3.57;;
20814;SDS011;10568;48.176;16.316;2022-11-21T18:11:07;3.97;;;2.97;;
20814;SDS011;10568;48.176;16.316;2022-11-21T18:13:35;5.43;;;3.23;;
20814;SDS011;10568;48.176;16.316;2022-11-21T18:16:02;3.57;;;2.60;;
20814;SDS011;10568;48.176;16.316;2022-11-21T18:18:32;5.73;;;3.13;;
20814;SDS011;10568;48.176;16.316;2022-11-21T18:21:09;5.87;;;3.30;;
20814;SDS011;10568;48.176;16.316;2022-11-21T18:23:37;6.10;;;3.40;;
20814;SDS011;10568;48.176;16.316;2022-11-21T18:26:05;5.67;;;3.77;;
20814;SDS011;10568;48.176;16.316;2022-11-21T18:28:35;5.87;;;3.73;;
20814;SDS011;10568;48.176;16.316;2022-11-21T18:31:11;6.00;;;3.40;;
20814;SDS011;10568;48.176;16.316;2022-11-21T18:33:38;5.47;;;3.60;;
20814;SDS011;10568;48.176;16.316;2022-11-21T18:36:06;5.93;;;3.70;;
20814;SDS011;10568;48.176;16.316;2022-11-21T18:38:34;8.17;;;3.80;;
20814;SDS011;10568;48.176;16.316;2022-11-21T18:41:02;6.03;;;3.63;;
20814;SDS011;10568;48.176;16.316;2022-11-21T18:43:31;9.63;;;4.63;;
20814;SDS011;10568;48.176;16.316;2022-11-21T18:46:04;6.30;;;3.80;;
20814;SDS011;10568;48.176;16.316;2022-11-21T18:48:32;7.23;;;4.47;;
20814;SDS011;10568;48.176;16.316;2022-11-21T18:51:02;9.07;;;4.60;;
20814;SDS011;10568;48.176;16.316;2022-11-21T18:53:29;8.97;;;5.23;;
20814;SDS011;10568;48.176;16.316;2022-11-21T18:55:55;7.73;;;5.23;;
20814;SDS011;10568;48.176;16.316;2022-11-21T18:58:26;7.87;;;5.33;;
20814;SDS011;10568;48.176;16.316;2022-11-21T19:00:58;9.53;;;5.13;;
20814;SDS011;10568;48.176;16.316;2022-11-21T19:03:32;7.33;;;3.97;;